Sint-Katelijne-Waver, Belgium
Current Conditions -  °F | °C
As of 12:20 AM on Wednesday 26 Nov 2014 (Local Time) from EBAW Reporting Station
Clear Clear  
Wind Chill:   Ceiling: Unl
Heat Index:   Visibility: 6mi
Dew Point:   Wind: 8mph
Humidity: 81%   Direction: 90°E
Pressure: 30.06"   Gusts: NA
Location:  51.07°N, 4.53°E
Report Text: EBAW 252320Z AUTO 09007KT CAVOK 05/02 Q1018
Loading
Personal Weather Stations






























Interactive Weather Map New forecast layout! Learn more

10-Day Weather Forecast

Advertisements
Track Severe Weather on mobile